sensor_id;sensor_type;location;lat;lon;timestamp;temperature;humidity
66670;DHT22;53568;52.164;4.472;2023-02-15T00:01:54;8.86;75.63
66670;DHT22;53568;52.164;4.472;2023-02-15T00:04:22;8.79;76.02
66670;DHT22;53568;52.164;4.472;2023-02-15T00:06:49;8.75;76.17
66670;DHT22;53568;52.164;4.472;2023-02-15T00:09:15;8.76;75.82
66670;DHT22;53568;52.164;4.472;2023-02-15T00:11:41;8.73;75.84
66670;DHT22;53568;52.164;4.472;2023-02-15T00:14:21;8.75;75.75
66670;DHT22;53568;52.164;4.472;2023-02-15T00:16:48;8.79;75.63
66670;DHT22;53568;52.164;4.472;2023-02-15T00:19:19;8.76;75.72
66670;DHT22;53568;52.164;4.472;2023-02-15T00:21:46;8.73;76.01
66670;DHT22;53568;52.164;4.472;2023-02-15T00:24:15;8.77;75.97
66670;DHT22;53568;52.164;4.472;2023-02-15T00:26:42;8.77;76.01
66670;DHT22;53568;52.164;4.472;2023-02-15T00:29:09;8.80;75.82
66670;DHT22;53568;52.164;4.472;2023-02-15T00:31:36;8.77;75.70
66670;DHT22;53568;52.164;4.472;2023-02-15T00:34:07;8.80;75.72
66670;DHT22;53568;52.164;4.472;2023-02-15T00:36:33;8.76;75.78
66670;DHT22;53568;52.164;4.472;2023-02-15T00:38:58;8.75;75.81
66670;DHT22;53568;52.164;4.472;2023-02-15T00:41:24;8.75;75.71
66670;DHT22;53568;52.164;4.472;2023-02-15T00:43:50;8.80;75.45
66670;DHT22;53568;52.164;4.472;2023-02-15T00:46:15;8.79;75.36
66670;DHT22;53568;52.164;4.472;2023-02-15T00:48:41;8.80;75.11
66670;DHT22;53568;52.164;4.472;2023-02-15T00:51:06;8.76;75.26
66670;DHT22;53568;52.164;4.472;2023-02-15T00:53:32;8.76;75.30
66670;DHT22;53568;52.164;4.472;2023-02-15T00:55:58;8.75;75.36
66670;DHT22;53568;52.164;4.472;2023-02-15T00:58:24;8.75;75.17
66670;DHT22;53568;52.164;4.472;2023-02-15T01:00:51;8.73;75.04
66670;DHT22;53568;52.164;4.472;2023-02-15T01:03:18;8.71;75.19
66670;DHT22;53568;52.164;4.472;2023-02-15T01:05:44;8.71;75.11
66670;DHT22;53568;52.164;4.472;2023-02-15T01:08:10;8.65;75.32
66670;DHT22;53568;52.164;4.472;2023-02-15T01:10:36;8.58;75.37
66670;DHT22;53568;52.164;4.472;2023-02-15T01:13:02;8.58;75.29
66670;DHT22;53568;52.164;4.472;2023-02-15T01:15:28;8.59;75.38
66670;DHT22;53568;52.164;4.472;2023-02-15T01:17:54;8.61;75.31
66670;DHT22;53568;52.164;4.472;2023-02-15T01:20:26;8.58;75.38
66670;DHT22;53568;52.164;4.472;2023-02-15T01:22:52;8.56;75.44
66670;DHT22;53568;52.164;4.472;2023-02-15T01:25:20;8.55;75.47
66670;DHT22;53568;52.164;4.472;2023-02-15T01:27:45;8.53;75.42
66670;DHT22;53568;52.164;4.472;2023-02-15T01:30:13;8.55;75.41
66670;DHT22;53568;52.164;4.472;2023-02-15T01:32:39;8.58;75.37
66670;DHT22;53568;52.164;4.472;2023-02-15T01:35:05;8.61;75.04
66670;DHT22;53568;52.164;4.472;2023-02-15T01:37:31;8.56;75.10
66670;DHT22;53568;52.164;4.472;2023-02-15T01:39:57;8.59;74.73
66670;DHT22;53568;52.164;4.472;2023-02-15T01:42:27;8.61;74.58
66670;DHT22;53568;52.164;4.472;2023-02-15T01:44:56;8.52;74.73
66670;DHT22;53568;52.164;4.472;2023-02-15T01:50:17;8.49;74.81
66670;DHT22;53568;52.164;4.472;2023-02-15T01:52:57;8.49;74.67
66670;DHT22;53568;52.164;4.472;2023-02-15T01:55:27;8.45;74.99
66670;DHT22;53568;52.164;4.472;2023-02-15T01:57:54;8.46;74.88
66670;DHT22;53568;52.164;4.472;2023-02-15T02:00:20;8.48;74.73
66670;DHT22;53568;52.164;4.472;2023-02-15T02:02:51;8.44;74.72
66670;DHT22;53568;52.164;4.472;2023-02-15T02:05:18;8.41;74.90
66670;DHT22;53568;52.164;4.472;2023-02-15T02:07:46;8.37;74.88
66670;DHT22;53568;52.164;4.472;2023-02-15T02:12:45;8.29;74.85
66670;DHT22;53568;52.164;4.472;2023-02-15T02:15:13;8.22;74.86
66670;DHT22;53568;52.164;4.472;2023-02-15T02:18:03;8.17;74.97
66670;DHT22;53568;52.164;4.472;2023-02-15T02:46:34;7.81;75.85
66670;DHT22;53568;52.164;4.472;2023-02-15T02:49:01;7.88;75.88
66670;DHT22;53568;52.164;4.472;2023-02-15T02:51:27;7.91;75.51
66670;DHT22;53568;52.164;4.472;2023-02-15T02:53:56;7.93;75.24
66670;DHT22;53568;52.164;4.472;2023-02-15T02:56:41;7.85;75.39
66670;DHT22;53568;52.164;4.472;2023-02-15T02:59:19;7.80;75.37
66670;DHT22;53568;52.164;4.472;2023-02-15T03:02:01;7.77;75.43
66670;DHT22;53568;52.164;4.472;2023-02-15T03:04:35;7.74;75.65
66670;DHT22;53568;52.164;4.472;2023-02-15T03:07:09;7.78;75.58
66670;DHT22;53568;52.164;4.472;2023-02-15T03:09:45;7.81;75.41
66670;DHT22;53568;52.164;4.472;2023-02-15T03:12:22;7.83;75.30
66670;DHT22;53568;52.164;4.472;2023-02-15T03:15:22;7.85;75.13
66670;DHT22;53568;52.164;4.472;2023-02-15T03:17:53;7.84;74.83
66670;DHT22;53568;52.164;4.472;2023-02-15T03:20:26;7.84;74.43
66670;DHT22;53568;52.164;4.472;2023-02-15T03:23:16;7.78;74.36
66670;DHT22;53568;52.164;4.472;2023-02-15T03:25:58;7.67;74.70
66670;DHT22;53568;52.164;4.472;2023-02-15T03:28:34;7.66;74.82
66670;DHT22;53568;52.164;4.472;2023-02-15T03:31:07;7.63;74.93
66670;DHT22;53568;52.164;4.472;2023-02-15T03:33:38;7.59;75.15
66670;DHT22;53568;52.164;4.472;2023-02-15T03:39:05;7.50;74.80
66670;DHT22;53568;52.164;4.472;2023-02-15T03:44:33;7.34;75.52
66670;DHT22;53568;52.164;4.472;2023-02-15T03:47:10;7.30;75.57
66670;DHT22;53568;52.164;4.472;2023-02-15T03:52:21;7.16;76.10
66670;DHT22;53568;52.164;4.472;2023-02-15T03:54:48;7.16;76.20
66670;DHT22;53568;52.164;4.472;2023-02-15T03:57:22;7.09;76.39
66670;DHT22;53568;52.164;4.472;2023-02-15T04:00:19;7.03;76.31
66670;DHT22;53568;52.164;4.472;2023-02-15T04:05:41;6.97;76.81
66670;DHT22;53568;52.164;4.472;2023-02-15T04:08:09;6.93;76.93
66670;DHT22;53568;52.164;4.472;2023-02-15T04:10:35;6.97;76.84
66670;DHT22;53568;52.164;4.472;2023-02-15T04:13:29;6.93;76.95
66670;DHT22;53568;52.164;4.472;2023-02-15T04:15:55;6.89;77.06
66670;DHT22;53568;52.164;4.472;2023-02-15T04:18:33;6.92;76.93
66670;DHT22;53568;52.164;4.472;2023-02-15T04:21:19;6.88;77.04
66670;DHT22;53568;52.164;4.472;2023-02-15T04:24:04;6.86;77.15
66670;DHT22;53568;52.164;4.472;2023-02-15T04:26:48;6.82;77.31
66670;DHT22;53568;52.164;4.472;2023-02-15T04:29:16;6.85;77.10
66670;DHT22;53568;52.164;4.472;2023-02-15T04:31:42;6.84;77.32
66670;DHT22;53568;52.164;4.472;2023-02-15T04:34:08;6.84;77.30
66670;DHT22;53568;52.164;4.472;2023-02-15T04:36:34;6.84;76.91
66670;DHT22;53568;52.164;4.472;2023-02-15T04:38:59;6.82;77.04
66670;DHT22;53568;52.164;4.472;2023-02-15T04:41:25;6.75;77.00
66670;DHT22;53568;52.164;4.472;2023-02-15T04:43:50;6.64;77.32
66670;DHT22;53568;52.164;4.472;2023-02-15T04:46:16;6.61;77.37
66670;DHT22;53568;52.164;4.472;2023-02-15T04:48:41;6.56;77.49
66670;DHT22;53568;52.164;4.472;2023-02-15T04:51:07;6.52;77.79
66670;DHT22;53568;52.164;4.472;2023-02-15T04:53:34;6.59;77.87
66670;DHT22;53568;52.164;4.472;2023-02-15T04:55:59;6.62;77.72
66670;DHT22;53568;52.164;4.472;2023-02-15T04:58:25;6.61;77.52
66670;DHT22;53568;52.164;4.472;2023-02-15T05:00:50;6.56;77.67
66670;DHT22;53568;52.164;4.472;2023-02-15T05:03:16;6.58;77.84
66670;DHT22;53568;52.164;4.472;2023-02-15T05:05:42;6.65;77.20
66670;DHT22;53568;52.164;4.472;2023-02-15T05:08:08;6.59;76.99
66670;DHT22;53568;52.164;4.472;2023-02-15T05:10:33;6.48;77.02
66670;DHT22;53568;52.164;4.472;2023-02-15T05:12:59;6.38;77.40
66670;DHT22;53568;52.164;4.472;2023-02-15T05:15:24;6.37;77.92
66670;DHT22;53568;52.164;4.472;2023-02-15T05:17:50;6.32;77.63
66670;DHT22;53568;52.164;4.472;2023-02-15T05:20:15;6.32;77.82
66670;DHT22;53568;52.164;4.472;2023-02-15T05:22:41;6.35;77.84
66670;DHT22;53568;52.164;4.472;2023-02-15T05:25:08;6.38;77.63
66670;DHT22;53568;52.164;4.472;2023-02-15T05:27:52;6.37;77.70
66670;DHT22;53568;52.164;4.472;2023-02-15T05:30:36;6.34;77.78
66670;DHT22;53568;52.164;4.472;2023-02-15T05:33:02;6.37;77.81
66670;DHT22;53568;52.164;4.472;2023-02-15T05:35:28;6.44;77.67
66670;DHT22;53568;52.164;4.472;2023-02-15T05:37:53;6.40;77.74
66670;DHT22;53568;52.164;4.472;2023-02-15T05:40:19;6.37;77.80
66670;DHT22;53568;52.164;4.472;2023-02-15T05:42:44;6.32;77.81
66670;DHT22;53568;52.164;4.472;2023-02-15T05:45:10;6.31;78.02
66670;DHT22;53568;52.164;4.472;2023-02-15T05:47:35;6.32;77.80
66670;DHT22;53568;52.164;4.472;2023-02-15T05:50:01;6.35;77.92
66670;DHT22;53568;52.164;4.472;2023-02-15T05:52:26;6.28;78.01
66670;DHT22;53568;52.164;4.472;2023-02-15T05:54:52;6.24;77.64
66670;DHT22;53568;52.164;4.472;2023-02-15T05:57:17;6.20;77.93
66670;DHT22;53568;52.164;4.472;2023-02-15T05:59:45;6.17;78.13
66670;DHT22;53568;52.164;4.472;2023-02-15T06:02:11;6.22;78.12
66670;DHT22;53568;52.164;4.472;2023-02-15T06:04:36;6.28;77.83
66670;DHT22;53568;52.164;4.472;2023-02-15T06:07:02;6.32;77.54
66670;DHT22;53568;52.164;4.472;2023-02-15T06:09:27;6.24;77.56
66670;DHT22;53568;52.164;4.472;2023-02-15T06:11:53;6.22;77.61
66670;DHT22;53568;52.164;4.472;2023-02-15T06:14:18;6.25;77.49
66670;DHT22;53568;52.164;4.472;2023-02-15T06:16:44;6.17;77.61
66670;DHT22;53568;52.164;4.472;2023-02-15T06:19:09;6.16;77.72
66670;DHT22;53568;52.164;4.472;2023-02-15T06:21:35;6.18;77.86
66670;DHT22;53568;52.164;4.472;2023-02-15T06:24:00;6.17;77.90
66670;DHT22;53568;52.164;4.472;2023-02-15T06:26:26;6.21;77.74
66670;DHT22;53568;52.164;4.472;2023-02-15T06:28:51;6.14;77.84
66670;DHT22;53568;52.164;4.472;2023-02-15T06:31:17;6.06;77.73
66670;DHT22;53568;52.164;4.472;2023-02-15T06:33:42;6.01;77.98
66670;DHT22;53568;52.164;4.472;2023-02-15T06:36:08;5.94;78.23
66670;DHT22;53568;52.164;4.472;2023-02-15T06:38:33;5.91;78.57
66670;DHT22;53568;52.164;4.472;2023-02-15T06:40:59;5.94;78.40
66670;DHT22;53568;52.164;4.472;2023-02-15T06:43:25;5.96;78.77
66670;DHT22;53568;52.164;4.472;2023-02-15T06:45:50;5.96;78.72
66670;DHT22;53568;52.164;4.472;2023-02-15T06:48:16;6.06;78.23
66670;DHT22;53568;52.164;4.472;2023-02-15T06:50:41;6.00;78.45
66670;DHT22;53568;52.164;4.472;2023-02-15T06:53:07;6.04;78.28
66670;DHT22;53568;52.164;4.472;2023-02-15T06:55:32;6.08;78.10
66670;DHT22;53568;52.164;4.472;2023-02-15T06:57:58;6.04;78.07
66670;DHT22;53568;52.164;4.472;2023-02-15T07:00:23;6.04;77.48
66670;DHT22;53568;52.164;4.472;2023-02-15T07:02:56;5.91;77.85
66670;DHT22;53568;52.164;4.472;2023-02-15T07:05:23;5.78;78.04
66670;DHT22;53568;52.164;4.472;2023-02-15T07:07:49;5.73;78.47
66670;DHT22;53568;52.164;4.472;2023-02-15T07:10:15;5.77;78.60
66670;DHT22;53568;52.164;4.472;2023-02-15T07:12:41;5.81;78.44
66670;DHT22;53568;52.164;4.472;2023-02-15T07:15:07;5.83;78.53
66670;DHT22;53568;52.164;4.472;2023-02-15T07:17:35;5.80;78.75
66670;DHT22;53568;52.164;4.472;2023-02-15T07:20:01;5.76;78.63
66670;DHT22;53568;52.164;4.472;2023-02-15T07:22:26;5.71;79.00
66670;DHT22;53568;52.164;4.472;2023-02-15T07:24:53;5.69;79.03
66670;DHT22;53568;52.164;4.472;2023-02-15T07:27:20;5.70;79.11
66670;DHT22;53568;52.164;4.472;2023-02-15T07:29:46;5.67;79.10
66670;DHT22;53568;52.164;4.472;2023-02-15T07:32:12;5.63;79.28
66670;DHT22;53568;52.164;4.472;2023-02-15T07:34:37;5.67;79.49
66670;DHT22;53568;52.164;4.472;2023-02-15T07:37:03;5.69;79.57
66670;DHT22;53568;52.164;4.472;2023-02-15T07:39:30;5.64;79.45
66670;DHT22;53568;52.164;4.472;2023-02-15T07:41:55;5.63;79.54
66670;DHT22;53568;52.164;4.472;2023-02-15T07:44:20;5.63;79.39
66670;DHT22;53568;52.164;4.472;2023-02-15T07:46:46;5.59;79.66
66670;DHT22;53568;52.164;4.472;2023-02-15T07:49:12;5.50;80.01
66670;DHT22;53568;52.164;4.472;2023-02-15T07:51:37;5.59;79.44
66670;DHT22;53568;52.164;4.472;2023-02-15T07:54:03;5.60;79.65
66670;DHT22;53568;52.164;4.472;2023-02-15T07:56:28;5.66;79.73
66670;DHT22;53568;52.164;4.472;2023-02-15T07:58:54;5.70;79.63
66670;DHT22;53568;52.164;4.472;2023-02-15T08:01:31;5.77;79.44
66670;DHT22;53568;52.164;4.472;2023-02-15T08:03:57;5.77;79.22
66670;DHT22;53568;52.164;4.472;2023-02-15T08:06:25;5.63;79.27
66670;DHT22;53568;52.164;4.472;2023-02-15T08:08:51;5.54;79.50
66670;DHT22;53568;52.164;4.472;2023-02-15T08:11:23;5.49;79.39
66670;DHT22;53568;52.164;4.472;2023-02-15T08:16:46;5.57;79.10
66670;DHT22;53568;52.164;4.472;2023-02-15T08:19:19;5.52;79.11
66670;DHT22;53568;52.164;4.472;2023-02-15T08:21:48;5.44;79.27
66670;DHT22;53568;52.164;4.472;2023-02-15T08:24:15;5.49;79.35
66670;DHT22;53568;52.164;4.472;2023-02-15T08:26:42;5.42;79.44
66670;DHT22;53568;52.164;4.472;2023-02-15T08:29:10;5.54;79.47
66670;DHT22;53568;52.164;4.472;2023-02-15T08:31:36;5.38;79.66
66670;DHT22;53568;52.164;4.472;2023-02-15T08:34:03;5.64;79.60
66670;DHT22;53568;52.164;4.472;2023-02-15T08:36:30;5.81;79.24
66670;DHT22;53568;52.164;4.472;2023-02-15T08:39:03;5.89;78.59
66670;DHT22;53568;52.164;4.472;2023-02-15T08:41:31;5.93;78.75
66670;DHT22;53568;52.164;4.472;2023-02-15T08:44:00;6.06;78.62
66670;DHT22;53568;52.164;4.472;2023-02-15T08:46:29;6.20;78.40
66670;DHT22;53568;52.164;4.472;2023-02-15T08:48:55;6.31;77.99
66670;DHT22;53568;52.164;4.472;2023-02-15T08:51:23;6.48;77.84
66670;DHT22;53568;52.164;4.472;2023-02-15T08:53:53;6.54;77.36
66670;DHT22;53568;52.164;4.472;2023-02-15T08:56:22;6.52;76.55
66670;DHT22;53568;52.164;4.472;2023-02-15T08:58:48;6.45;76.49
66670;DHT22;53568;52.164;4.472;2023-02-15T09:01:22;6.45;76.85
66670;DHT22;53568;52.164;4.472;2023-02-15T09:03:51;6.41;77.46
66670;DHT22;53568;52.164;4.472;2023-02-15T09:06:19;6.49;77.18
66670;DHT22;53568;52.164;4.472;2023-02-15T09:08:45;6.67;76.95
66670;DHT22;53568;52.164;4.472;2023-02-15T09:11:14;6.75;76.51
66670;DHT22;53568;52.164;4.472;2023-02-15T09:13:49;6.69;76.62
66670;DHT22;53568;52.164;4.472;2023-02-15T09:16:15;6.81;76.47
66670;DHT22;53568;52.164;4.472;2023-02-15T09:18:44;6.86;76.17
66670;DHT22;53568;52.164;4.472;2023-02-15T09:21:15;6.86;76.26
66670;DHT22;53568;52.164;4.472;2023-02-15T09:23:46;6.92;76.40
66670;DHT22;53568;52.164;4.472;2023-02-15T09:26:15;6.95;76.30
66670;DHT22;53568;52.164;4.472;2023-02-15T09:28:41;7.09;76.16
66670;DHT22;53568;52.164;4.472;2023-02-15T09:31:14;7.17;76.35
66670;DHT22;53568;52.164;4.472;2023-02-15T09:33:41;7.22;75.72
66670;DHT22;53568;52.164;4.472;2023-02-15T09:36:22;7.34;75.70
66670;DHT22;53568;52.164;4.472;2023-02-15T09:38:56;7.29;75.70
66670;DHT22;53568;52.164;4.472;2023-02-15T09:50:23;7.56;75.66
66670;DHT22;53568;52.164;4.472;2023-02-15T09:55:53;7.88;75.42
66670;DHT22;53568;52.164;4.472;2023-02-15T10:01:31;8.07;75.44
66670;DHT22;53568;52.164;4.472;2023-02-15T10:10:17;8.32;74.22
66670;DHT22;53568;52.164;4.472;2023-02-15T10:15:34;8.52;73.75
66670;DHT22;53568;52.164;4.472;2023-02-15T10:20:57;8.52;73.95
66670;DHT22;53568;52.164;4.472;2023-02-15T10:23:49;8.55;74.21
66670;DHT22;53568;52.164;4.472;2023-02-15T10:26:36;8.63;73.92
66670;DHT22;53568;52.164;4.472;2023-02-15T10:29:31;8.72;73.90
66670;DHT22;53568;52.164;4.472;2023-02-15T10:34:40;8.86;74.23
66670;DHT22;53568;52.164;4.472;2023-02-15T10:45:29;9.26;73.57
66670;DHT22;53568;52.164;4.472;2023-02-15T10:50:51;9.38;72.71
66670;DHT22;53568;52.164;4.472;2023-02-15T10:53:31;9.48;72.41
66670;DHT22;53568;52.164;4.472;2023-02-15T11:01:25;9.70;70.65
66670;DHT22;53568;52.164;4.472;2023-02-15T11:06:32;9.69;70.58
66670;DHT22;53568;52.164;4.472;2023-02-15T11:09:04;9.84;70.43
66670;DHT22;53568;52.164;4.472;2023-02-15T11:11:41;9.98;70.00
66670;DHT22;53568;52.164;4.472;2023-02-15T11:14:23;10.11;69.86
66670;DHT22;53568;52.164;4.472;2023-02-15T11:16:56;10.15;69.82
66670;DHT22;53568;52.164;4.472;2023-02-15T11:19:34;10.16;69.66
66670;DHT22;53568;52.164;4.472;2023-02-15T11:22:06;10.31;69.53
66670;DHT22;53568;52.164;4.472;2023-02-15T11:24:41;10.38;69.09
66670;DHT22;53568;52.164;4.472;2023-02-15T11:27:24;10.53;68.63
66670;DHT22;53568;52.164;4.472;2023-02-15T11:30:27;10.68;67.77
66670;DHT22;53568;52.164;4.472;2023-02-15T11:33:00;10.62;67.47
66670;DHT22;53568;52.164;4.472;2023-02-15T11:35:33;10.56;67.50
66670;DHT22;53568;52.164;4.472;2023-02-15T11:38:19;10.62;67.32
66670;DHT22;53568;52.164;4.472;2023-02-15T11:40:48;10.70;67.33
66670;DHT22;53568;52.164;4.472;2023-02-15T11:43:42;10.84;66.66
66670;DHT22;53568;52.164;4.472;2023-02-15T11:46:12;10.86;66.35
66670;DHT22;53568;52.164;4.472;2023-02-15T11:48:39;10.95;65.99
66670;DHT22;53568;52.164;4.472;2023-02-15T11:51:05;10.89;66.07
66670;DHT22;53568;52.164;4.472;2023-02-15T11:53:37;10.96;66.05
66670;DHT22;53568;52.164;4.472;2023-02-15T11:56:03;10.99;65.98
66670;DHT22;53568;52.164;4.472;2023-02-15T11:59:13;11.13;65.49
66670;DHT22;53568;52.164;4.472;2023-02-15T12:01:46;10.99;65.88
66670;DHT22;53568;52.164;4.472;2023-02-15T12:04:25;11.07;65.92
66670;DHT22;53568;52.164;4.472;2023-02-15T12:07:27;11.10;65.84
66670;DHT22;53568;52.164;4.472;2023-02-15T12:12:47;11.37;65.41
66670;DHT22;53568;52.164;4.472;2023-02-15T12:15:13;11.50;64.92
66670;DHT22;53568;52.164;4.472;2023-02-15T12:17:47;11.48;65.14
66670;DHT22;53568;52.164;4.472;2023-02-15T12:22:49;11.74;64.38
66670;DHT22;53568;52.164;4.472;2023-02-15T12:27:50;11.67;65.05
66670;DHT22;53568;52.164;4.472;2023-02-15T12:30:25;11.73;64.80
66670;DHT22;53568;52.164;4.472;2023-02-15T12:33:15;11.82;64.44
66670;DHT22;53568;52.164;4.472;2023-02-15T12:35:43;11.85;64.45
66670;DHT22;53568;52.164;4.472;2023-02-15T12:40:35;12.04;63.74
66670;DHT22;53568;52.164;4.472;2023-02-15T12:43:05;12.08;63.14
66670;DHT22;53568;52.164;4.472;2023-02-15T12:45:49;12.18;61.94
66670;DHT22;53568;52.164;4.472;2023-02-15T12:48:20;12.04;61.70
66670;DHT22;53568;52.164;4.472;2023-02-15T12:50:48;12.05;61.53
66670;DHT22;53568;52.164;4.472;2023-02-15T12:53:16;12.10;61.31
66670;DHT22;53568;52.164;4.472;2023-02-15T12:56:08;12.28;60.95
66670;DHT22;53568;52.164;4.472;2023-02-15T12:58:40;12.21;60.84
66670;DHT22;53568;52.164;4.472;2023-02-15T13:03:35;12.39;60.16
66670;DHT22;53568;52.164;4.472;2023-02-15T13:06:04;12.28;60.28
66670;DHT22;53568;52.164;4.472;2023-02-15T13:08:47;12.26;60.49
66670;DHT22;53568;52.164;4.472;2023-02-15T13:11:23;12.39;60.45
66670;DHT22;53568;52.164;4.472;2023-02-15T13:14:01;12.48;60.26
66670;DHT22;53568;52.164;4.472;2023-02-15T13:16:33;12.52;60.18
66670;DHT22;53568;52.164;4.472;2023-02-15T13:19:16;12.50;60.19
66670;DHT22;53568;52.164;4.472;2023-02-15T13:21:48;12.43;60.06
66670;DHT22;53568;52.164;4.472;2023-02-15T13:24:24;12.62;59.64
66670;DHT22;53568;52.164;4.472;2023-02-15T13:26:52;12.55;60.10
66670;DHT22;53568;52.164;4.472;2023-02-15T13:29:29;12.55;60.27
66670;DHT22;53568;52.164;4.472;2023-02-15T13:31:58;12.66;60.40
66670;DHT22;53568;52.164;4.472;2023-02-15T13:34:33;12.69;60.30
66670;DHT22;53568;52.164;4.472;2023-02-15T13:47:28;12.76;59.89
66670;DHT22;53568;52.164;4.472;2023-02-15T13:53:09;12.67;60.62
66670;DHT22;53568;52.164;4.472;2023-02-15T13:55:55;12.75;60.45
66670;DHT22;53568;52.164;4.472;2023-02-15T14:01:04;12.82;59.64
66670;DHT22;53568;52.164;4.472;2023-02-15T14:04:00;12.89;59.55
66670;DHT22;53568;52.164;4.472;2023-02-15T14:07:00;12.92;59.56
66670;DHT22;53568;52.164;4.472;2023-02-15T14:09:53;12.87;59.81
66670;DHT22;53568;52.164;4.472;2023-02-15T14:12:29;13.02;59.70
66670;DHT22;53568;52.164;4.472;2023-02-15T14:15:12;12.97;59.71
66670;DHT22;53568;52.164;4.472;2023-02-15T14:25:42;13.13;59.11
66670;DHT22;53568;52.164;4.472;2023-02-15T14:28:19;13.17;59.02
66670;DHT22;53568;52.164;4.472;2023-02-15T14:30:49;13.27;58.66
66670;DHT22;53568;52.164;4.472;2023-02-15T14:35:51;13.17;58.98
66670;DHT22;53568;52.164;4.472;2023-02-15T14:41:25;13.27;58.72
66670;DHT22;53568;52.164;4.472;2023-02-15T14:44:11;13.24;58.82
66670;DHT22;53568;52.164;4.472;2023-02-15T14:46:52;13.23;58.73
66670;DHT22;53568;52.164;4.472;2023-02-15T14:49:27;13.24;58.65
66670;DHT22;53568;52.164;4.472;2023-02-15T14:59:53;13.20;58.33
66670;DHT22;53568;52.164;4.472;2023-02-15T15:02:39;13.11;57.60
66670;DHT22;53568;52.164;4.472;2023-02-15T15:05:24;13.03;57.65
66670;DHT22;53568;52.164;4.472;2023-02-15T15:07:58;13.09;57.46
66670;DHT22;53568;52.164;4.472;2023-02-15T15:10:37;13.14;57.31
66670;DHT22;53568;52.164;4.472;2023-02-15T15:19:01;13.13;57.46
66670;DHT22;53568;52.164;4.472;2023-02-15T15:24:46;13.06;58.29
66670;DHT22;53568;52.164;4.472;2023-02-15T15:27:47;13.07;58.47
66670;DHT22;53568;52.164;4.472;2023-02-15T15:41:41;12.96;59.77
66670;DHT22;53568;52.164;4.472;2023-02-15T15:49:58;12.93;60.37
66670;DHT22;53568;52.164;4.472;2023-02-15T15:52:26;12.80;60.81
66670;DHT22;53568;52.164;4.472;2023-02-15T15:55:02;12.66;60.96
66670;DHT22;53568;52.164;4.472;2023-02-15T15:57:33;12.70;60.85
66670;DHT22;53568;52.164;4.472;2023-02-15T16:00:00;12.63;61.09
66670;DHT22;53568;52.164;4.472;2023-02-15T16:02:27;12.53;60.85
66670;DHT22;53568;52.164;4.472;2023-02-15T16:04:52;12.55;60.69
66670;DHT22;53568;52.164;4.472;2023-02-15T16:10:04;12.48;61.39
66670;DHT22;53568;52.164;4.472;2023-02-15T16:12:33;12.41;61.76
66670;DHT22;53568;52.164;4.472;2023-02-15T16:15:04;12.29;62.30
66670;DHT22;53568;52.164;4.472;2023-02-15T16:17:42;12.26;62.59
66670;DHT22;53568;52.164;4.472;2023-02-15T16:20:25;12.10;63.37
66670;DHT22;53568;52.164;4.472;2023-02-15T16:25:49;12.10;63.77
66670;DHT22;53568;52.164;4.472;2023-02-15T16:28:17;12.08;63.80
66670;DHT22;53568;52.164;4.472;2023-02-15T16:30:58;11.99;64.00
66670;DHT22;53568;52.164;4.472;2023-02-15T16:33:35;11.91;64.44
66670;DHT22;53568;52.164;4.472;2023-02-15T16:36:03;11.90;64.54
66670;DHT22;53568;52.164;4.472;2023-02-15T16:41:10;11.84;64.86
66670;DHT22;53568;52.164;4.472;2023-02-15T16:43:37;11.90;64.63
66670;DHT22;53568;52.164;4.472;2023-02-15T16:46:08;11.97;64.45
66670;DHT22;53568;52.164;4.472;2023-02-15T16:48:43;11.85;64.50
66670;DHT22;53568;52.164;4.472;2023-02-15T16:51:10;11.77;64.61
66670;DHT22;53568;52.164;4.472;2023-02-15T16:53:46;11.71;65.02
66670;DHT22;53568;52.164;4.472;2023-02-15T16:56:13;11.73;65.06
66670;DHT22;53568;52.164;4.472;2023-02-15T16:58:49;11.68;65.20
66670;DHT22;53568;52.164;4.472;2023-02-15T17:01:16;11.71;65.22
66670;DHT22;53568;52.164;4.472;2023-02-15T17:03:48;11.70;65.39
66670;DHT22;53568;52.164;4.472;2023-02-15T17:06:24;11.56;65.78
66670;DHT22;53568;52.164;4.472;2023-02-15T17:09:12;11.64;65.64
66670;DHT22;53568;52.164;4.472;2023-02-15T17:11:43;11.57;65.86
66670;DHT22;53568;52.164;4.472;2023-02-15T17:19:18;11.44;66.42
66670;DHT22;53568;52.164;4.472;2023-02-15T17:21:54;11.47;66.39
66670;DHT22;53568;52.164;4.472;2023-02-15T17:24:41;11.38;66.37
66670;DHT22;53568;52.164;4.472;2023-02-15T17:27:21;11.36;66.63
66670;DHT22;53568;52.164;4.472;2023-02-15T17:29:55;11.50;66.48
66670;DHT22;53568;52.164;4.472;2023-02-15T17:32:24;11.44;66.57
66670;DHT22;53568;52.164;4.472;2023-02-15T17:34:57;11.30;66.98
66670;DHT22;53568;52.164;4.472;2023-02-15T17:37:42;11.22;67.39
66670;DHT22;53568;52.164;4.472;2023-02-15T17:40:26;11.31;67.21
66670;DHT22;53568;52.164;4.472;2023-02-15T17:42:53;11.33;67.28
66670;DHT22;53568;52.164;4.472;2023-02-15T17:45:19;11.23;67.66
66670;DHT22;53568;52.164;4.472;2023-02-15T17:47:47;11.20;67.76
66670;DHT22;53568;52.164;4.472;2023-02-15T17:50:22;11.20;67.83
66670;DHT22;53568;52.164;4.472;2023-02-15T17:52:49;11.26;67.53
66670;DHT22;53568;52.164;4.472;2023-02-15T17:55:18;11.14;67.97
66670;DHT22;53568;52.164;4.472;2023-02-15T17:58:01;11.23;67.73
66670;DHT22;53568;52.164;4.472;2023-02-15T18:00:27;11.26;67.79
66670;DHT22;53568;52.164;4.472;2023-02-15T18:03:12;11.19;67.62
66670;DHT22;53568;52.164;4.472;2023-02-15T18:05:57;11.10;67.62
66670;DHT22;53568;52.164;4.472;2023-02-15T18:08:42;11.23;67.46
66670;DHT22;53568;52.164;4.472;2023-02-15T18:11:26;11.31;67.21
66670;DHT22;53568;52.164;4.472;2023-02-15T18:14:09;11.28;66.99
66670;DHT22;53568;52.164;4.472;2023-02-15T18:16:40;11.33;66.81
66670;DHT22;53568;52.164;4.472;2023-02-15T18:19:26;11.40;66.49
66670;DHT22;53568;52.164;4.472;2023-02-15T18:21:52;11.38;66.20
66670;DHT22;53568;52.164;4.472;2023-02-15T18:24:22;11.36;65.96
66670;DHT22;53568;52.164;4.472;2023-02-15T18:26:49;11.31;65.83
66670;DHT22;53568;52.164;4.472;2023-02-15T18:29:15;11.37;65.56
66670;DHT22;53568;52.164;4.472;2023-02-15T18:31:43;11.37;65.51
66670;DHT22;53568;52.164;4.472;2023-02-15T18:34:32;11.31;65.43
66670;DHT22;53568;52.164;4.472;2023-02-15T18:37:01;11.28;65.08
66670;DHT22;53568;52.164;4.472;2023-02-15T18:39:41;11.34;64.67
66670;DHT22;53568;52.164;4.472;2023-02-15T18:42:27;11.31;64.43
66670;DHT22;53568;52.164;4.472;2023-02-15T18:44:58;11.24;64.47
66670;DHT22;53568;52.164;4.472;2023-02-15T18:47:25;11.23;64.29
66670;DHT22;53568;52.164;4.472;2023-02-15T18:49:51;11.23;64.10
66670;DHT22;53568;52.164;4.472;2023-02-15T18:52:20;11.24;63.74
66670;DHT22;53568;52.164;4.472;2023-02-15T18:54:50;11.27;63.47
66670;DHT22;53568;52.164;4.472;2023-02-15T18:57:17;11.22;63.35
66670;DHT22;53568;52.164;4.472;2023-02-15T18:59:43;11.16;63.50
66670;DHT22;53568;52.164;4.472;2023-02-15T19:02:16;11.24;63.08
66670;DHT22;53568;52.164;4.472;2023-02-15T19:04:43;11.28;62.77
66670;DHT22;53568;52.164;4.472;2023-02-15T19:07:29;11.26;62.82
66670;DHT22;53568;52.164;4.472;2023-02-15T19:09:58;11.22;62.68
66670;DHT22;53568;52.164;4.472;2023-02-15T19:12:26;11.28;62.40